Time;durP1;ratioP1;P1;durP2;ratioP2;P2;SDS_P1;SDS_P2;PMS_P1;PMS_P2;Temp;Humidity;BMP_temperature;BMP_pressure;BME280_temperature;BME280_humidity;BME280_pressure;Samples;Min_cycle;Max_cycle;Signal;HPM_P1;HPM_P2
2022/06/21 00:00:33;;;;;;;8.80;4.10;;;;;;;;;;5052671;28;20468;-74
2022/06/21 00:03:01;;;;;;;4.37;3.43;;;;;;;;;;5052340;28;20412;-74
2022/06/21 00:05:34;;;;;;;4.73;4.00;;;;;;;;;;5052466;28;20425;-75
2022/06/21 00:08:01;;;;;;;7.00;3.47;;;;;;;;;;5052348;28;20424;-75
2022/06/21 00:10:27;;;;;;;4.77;4.27;;;;;;;;;;5056035;28;20408;-75
2022/06/21 00:12:53;;;;;;;5.57;3.90;;;;;;;;;;5055925;28;20412;-75
2022/06/21 00:15:19;;;;;;;7.00;3.80;;;;;;;;;;5056144;28;20796;-74
2022/06/21 00:17:49;;;;;;;4.40;3.40;;;;;;;;;;5056134;28;20423;-75
2022/06/21 00:20:20;;;;;;;4.03;3.10;;;;;;;;;;5055791;28;20423;-75
2022/06/21 00:22:46;;;;;;;4.60;3.00;;;;;;;;;;5056164;28;20913;-75
2022/06/21 00:25:16;;;;;;;5.17;3.57;;;;;;;;;;5055677;28;20428;-75
2022/06/21 00:27:42;;;;;;;4.00;3.43;;;;;;;;;;5056371;28;20417;-75
2022/06/21 00:30:09;;;;;;;8.03;4.30;;;;;;;;;;5056142;28;20440;-74
2022/06/21 00:32:35;;;;;;;4.00;3.57;;;;;;;;;;5055903;28;20534;-75
2022/06/21 00:35:01;;;;;;;3.77;3.47;;;;;;;;;;5055582;28;20432;-74
2022/06/21 00:37:27;;;;;;;5.77;3.60;;;;;;;;;;5055904;28;20415;-75
2022/06/21 00:39:53;;;;;;;7.20;4.10;;;;;;;;;;5054635;28;20432;-74
2022/06/21 00:42:22;;;;;;;6.43;4.50;;;;;;;;;;5055572;28;20548;-75
2022/06/21 00:44:53;;;;;;;4.77;3.93;;;;;;;;;;5055294;28;20432;-75
2022/06/21 00:47:23;;;;;;;7.50;4.40;;;;;;;;;;5055671;28;20404;-75
2022/06/21 00:49:49;;;;;;;8.00;4.87;;;;;;;;;;5055604;28;20495;-74
2022/06/21 00:52:41;;;;;;;4.90;4.10;;;;;;;;;;5055439;28;20491;-74
2022/06/21 00:55:17;;;;;;;10.80;4.50;;;;;;;;;;5054136;28;20456;-74
2022/06/21 00:57:47;;;;;;;7.00;5.63;;;;;;;;;;5055430;28;20531;-74
2022/06/21 01:00:28;;;;;;;8.60;5.00;;;;;;;;;;5054209;28;20557;-75
2022/06/21 01:02:56;;;;;;;5.80;4.93;;;;;;;;;;5054993;28;20818;-75
2022/06/21 01:05:22;;;;;;;6.20;4.95;;;;;;;;;;5055254;28;20424;-76
2022/06/21 01:07:49;;;;;;;7.63;5.30;;;;;;;;;;5055392;28;20166;-75
2022/06/21 01:10:17;;;;;;;6.20;4.87;;;;;;;;;;5055154;28;20499;-76
2022/06/21 01:12:43;;;;;;;4.82;4.00;;;;;;;;;;5055070;28;20791;-75
2022/06/21 01:15:10;;;;;;;7.50;4.23;;;;;;;;;;5054837;28;20209;-76
2022/06/21 01:17:37;;;;;;;4.97;4.23;;;;;;;;;;5055236;28;20408;-75
2022/06/21 01:20:09;;;;;;;7.85;5.43;;;;;;;;;;5054012;28;20496;-75
2022/06/21 01:22:54;;;;;;;9.73;4.77;;;;;;;;;;5053563;28;20202;-75
2022/06/21 01:25:38;;;;;;;6.90;4.63;;;;;;;;;;5055040;28;20413;-75
2022/06/21 01:28:05;;;;;;;10.25;5.20;;;;;;;;;;5054911;28;20526;-76
2022/06/21 01:30:31;;;;;;;9.67;5.23;;;;;;;;;;5054815;28;20181;-76
2022/06/21 01:33:01;;;;;;;6.37;4.33;;;;;;;;;;5054358;28;20443;-75
2022/06/21 01:35:51;;;;;;;8.83;4.53;;;;;;;;;;5054642;28;20437;-75
2022/06/21 01:38:23;;;;;;;5.85;5.20;;;;;;;;;;5054820;28;20411;-76
2022/06/21 01:40:51;;;;;;;7.28;5.10;;;;;;;;;;5054467;28;20169;-76
2022/06/21 01:43:18;;;;;;;5.53;4.90;;;;;;;;;;5054548;28;20627;-75
2022/06/21 01:46:14;;;;;;;8.02;5.30;;;;;;;;;;5054485;28;20403;-75
2022/06/21 01:48:43;;;;;;;6.82;5.00;;;;;;;;;;5050024;28;20226;-75
2022/06/21 01:51:13;;;;;;;8.43;5.95;;;;;;;;;;5054553;28;20592;-75
2022/06/21 01:53:39;;;;;;;9.30;6.10;;;;;;;;;;5054242;28;20185;-75
2022/06/21 01:56:10;;;;;;;6.80;4.80;;;;;;;;;;5054256;28;20259;-75
2022/06/21 01:58:41;;;;;;;8.23;5.00;;;;;;;;;;5054371;28;20176;-76
2022/06/21 02:01:11;;;;;;;8.48;4.78;;;;;;;;;;5054084;28;20194;-76
2022/06/21 02:03:39;;;;;;;6.40;5.80;;;;;;;;;;5054052;28;20170;-75
2022/06/21 02:06:10;;;;;;;6.93;5.80;;;;;;;;;;5054143;28;20417;-76
2022/06/21 02:08:59;;;;;;;8.85;5.53;;;;;;;;;;5054055;28;20170;-76
2022/06/21 02:11:27;;;;;;;9.30;6.03;;;;;;;;;;5051072;28;20189;-76
2022/06/21 02:16:40;;;;;;;8.32;6.05;;;;;;;;;;5054333;28;20185;-76
2022/06/21 02:19:09;;;;;;;11.10;6.15;;;;;;;;;;5053709;28;20205;-75
2022/06/21 02:21:38;;;;;;;9.50;5.95;;;;;;;;;;5053716;28;20576;-76
2022/06/21 02:24:05;;;;;;;11.18;7.03;;;;;;;;;;5053633;28;20626;-75
2022/06/21 02:26:31;;;;;;;8.73;6.47;;;;;;;;;;5053663;28;20228;-75
2022/06/21 02:28:57;;;;;;;6.38;5.75;;;;;;;;;;5053689;28;20170;-75
2022/06/21 02:31:25;;;;;;;8.88;6.32;;;;;;;;;;5053473;28;20186;-76
2022/06/21 02:33:52;;;;;;;7.82;6.00;;;;;;;;;;5053404;28;20182;-76
2022/06/21 02:36:20;;;;;;;10.23;5.50;;;;;;;;;;5053744;28;20194;-76
2022/06/21 02:38:48;;;;;;;7.70;6.10;;;;;;;;;;5053756;28;20259;-75
2022/06/21 02:41:19;;;;;;;6.03;5.43;;;;;;;;;;5053462;28;20202;-74
2022/06/21 02:43:47;;;;;;;6.60;5.83;;;;;;;;;;5053258;28;20744;-76
2022/06/21 02:46:21;;;;;;;11.63;6.57;;;;;;;;;;5053331;28;20429;-75
2022/06/21 02:48:53;;;;;;;10.35;5.80;;;;;;;;;;5053572;28;20185;-75
2022/06/21 02:51:38;;;;;;;5.93;5.20;;;;;;;;;;5053355;28;20184;-76
2022/06/21 02:54:07;;;;;;;9.07;5.50;;;;;;;;;;5053319;28;20178;-75
2022/06/21 02:56:56;;;;;;;8.43;6.05;;;;;;;;;;5053155;28;20240;-76
2022/06/21 02:59:22;;;;;;;10.93;6.40;;;;;;;;;;5053193;28;20208;-75
2022/06/21 03:01:54;;;;;;;9.45;7.55;;;;;;;;;;5053263;28;20194;-75
2022/06/21 03:04:48;;;;;;;9.85;5.80;;;;;;;;;;5052892;28;20574;-75
2022/06/21 03:07:16;;;;;;;11.63;6.38;;;;;;;;;;5052381;28;20186;-75
2022/06/21 03:09:42;;;;;;;7.25;6.57;;;;;;;;;;5052856;28;20173;-75
2022/06/21 03:12:11;;;;;;;7.45;6.60;;;;;;;;;;5053110;28;20655;-76
2022/06/21 03:14:37;;;;;;;10.55;6.57;;;;;;;;;;5034971;28;20197;-75
2022/06/21 03:17:04;;;;;;;9.43;6.72;;;;;;;;;;5053030;28;20243;-75
2022/06/21 03:19:30;;;;;;;10.00;6.90;;;;;;;;;;5052794;28;20178;-76
2022/06/21 03:21:56;;;;;;;8.90;6.97;;;;;;;;;;5052936;28;20263;-76
2022/06/21 03:24:23;;;;;;;10.13;6.88;;;;;;;;;;5051361;28;20812;-76
2022/06/21 03:26:56;;;;;;;8.50;6.90;;;;;;;;;;5053181;28;20178;-75
2022/06/21 03:29:23;;;;;;;7.65;6.95;;;;;;;;;;5053032;28;20181;-76
2022/06/21 03:31:50;;;;;;;9.75;6.78;;;;;;;;;;5052796;28;20244;-76
2022/06/21 03:34:17;;;;;;;9.05;7.05;;;;;;;;;;5052486;28;20185;-76
2022/06/21 03:36:43;;;;;;;10.20;6.38;;;;;;;;;;5052823;28;20704;-78
2022/06/21 03:39:12;;;;;;;7.75;6.95;;;;;;;;;;5052860;28;20182;-75
2022/06/21 03:41:43;;;;;;;9.27;6.50;;;;;;;;;;5052582;28;20299;-75
2022/06/21 03:44:23;;;;;;;10.68;6.75;;;;;;;;;;5054161;28;20653;-75
2022/06/21 03:46:53;;;;;;;8.50;6.60;;;;;;;;;;5057016;28;20170;-76
2022/06/21 03:49:25;;;;;;;9.80;7.32;;;;;;;;;;5056786;28;20178;-75
2022/06/21 03:51:51;;;;;;;13.55;7.80;;;;;;;;;;5056749;28;20253;-75
2022/06/21 03:54:20;;;;;;;12.43;7.22;;;;;;;;;;5056289;28;20182;-77
2022/06/21 03:56:53;;;;;;;9.00;7.00;;;;;;;;;;5056675;28;20176;-76
2022/06/21 03:59:22;;;;;;;14.70;7.32;;;;;;;;;;5056576;28;20223;-76
2022/06/21 04:01:55;;;;;;;9.07;6.75;;;;;;;;;;5056313;28;20248;-76
2022/06/21 04:04:34;;;;;;;8.70;7.55;;;;;;;;;;5056184;28;20220;-75
2022/06/21 04:07:13;;;;;;;12.10;7.40;;;;;;;;;;5056419;28;20543;-76
2022/06/21 04:09:42;;;;;;;8.57;7.10;;;;;;;;;;5056265;28;20236;-76
2022/06/21 04:12:11;;;;;;;8.35;7.18;;;;;;;;;;5056308;28;20213;-77
2022/06/21 04:15:03;;;;;;;10.77;7.55;;;;;;;;;;5055793;28;20190;-76
2022/06/21 04:17:36;;;;;;;8.93;6.80;;;;;;;;;;5055074;28;20197;-77
2022/06/21 04:20:06;;;;;;;10.85;7.28;;;;;;;;;;5056042;28;20189;-76
2022/06/21 04:22:33;;;;;;;8.82;6.60;;;;;;;;;;5056123;28;20264;-76
2022/06/21 04:24:59;;;;;;;8.38;7.03;;;;;;;;;;5055775;28;20190;-77
2022/06/21 04:27:31;;;;;;;9.80;6.70;;;;;;;;;;5056084;28;20260;-75
2022/06/21 04:30:11;;;;;;;12.35;7.80;;;;;;;;;;5054649;28;20795;-74
2022/06/21 04:32:41;;;;;;;8.88;7.18;;;;;;;;;;5055935;28;20205;-75
2022/06/21 04:35:16;;;;;;;11.40;7.30;;;;;;;;;;5055961;28;20656;-75
2022/06/21 04:37:46;;;;;;;13.32;7.35;;;;;;;;;;5056260;28;20181;-75
2022/06/21 04:40:25;;;;;;;8.40;7.60;;;;;;;;;;5055784;28;20189;-76
2022/06/21 04:43:01;;;;;;;9.43;7.85;;;;;;;;;;5055900;28;20194;-75
2022/06/21 04:45:34;;;;;;;10.35;8.32;;;;;;;;;;5055692;28;20197;-76
2022/06/21 04:48:14;;;;;;;9.80;8.20;;;;;;;;;;5055755;28;20215;-76
2022/06/21 04:50:43;;;;;;;11.30;7.95;;;;;;;;;;5055700;28;20435;-76
2022/06/21 04:53:21;;;;;;;10.38;7.80;;;;;;;;;;5055332;28;20197;-76
2022/06/21 04:55:46;;;;;;;9.10;8.00;;;;;;;;;;5055267;28;20254;-76
2022/06/21 04:58:12;;;;;;;11.40;8.23;;;;;;;;;;5055364;28;20412;-75
2022/06/21 05:00:38;;;;;;;10.95;8.80;;;;;;;;;;5055599;28;20412;-76
2022/06/21 05:03:10;;;;;;;9.20;7.90;;;;;;;;;;5055153;28;20209;-75
2022/06/21 05:05:37;;;;;;;12.88;8.70;;;;;;;;;;5055310;28;20190;-75
2022/06/21 05:08:12;;;;;;;9.25;8.35;;;;;;;;;;5055100;28;20544;-75
2022/06/21 05:10:41;;;;;;;10.00;8.27;;;;;;;;;;5055261;28;20261;-75
2022/06/21 05:13:14;;;;;;;10.83;8.30;;;;;;;;;;5054886;28;20469;-76
2022/06/21 05:15:41;;;;;;;11.03;8.30;;;;;;;;;;5053839;28;20948;-76
2022/06/21 05:18:11;;;;;;;10.90;8.03;;;;;;;;;;5054993;28;20831;-77
2022/06/21 05:20:38;;;;;;;11.18;9.02;;;;;;;;;;5054893;28;20767;-75
2022/06/21 05:23:06;;;;;;;12.00;8.13;;;;;;;;;;5054647;28;20698;-76
2022/06/21 05:25:34;;;;;;;8.80;7.70;;;;;;;;;;5054894;28;20510;-76
2022/06/21 05:28:19;;;;;;;10.33;7.77;;;;;;;;;;5054908;28;20412;-77
2022/06/21 05:30:52;;;;;;;9.83;7.30;;;;;;;;;;5053497;28;20420;-75
2022/06/21 05:33:32;;;;;;;11.10;7.83;;;;;;;;;;5054328;28;20425;-74
2022/06/21 05:35:58;;;;;;;10.00;6.97;;;;;;;;;;5053617;28;20432;-75
2022/06/21 05:38:26;;;;;;;10.10;7.20;;;;;;;;;;5054683;28;20408;-77
2022/06/21 05:40:59;;;;;;;9.53;7.63;;;;;;;;;;5054578;28;20753;-77
2022/06/21 05:43:28;;;;;;;11.00;6.77;;;;;;;;;;5054273;28;20827;-76
2022/06/21 05:45:57;;;;;;;13.50;8.27;;;;;;;;;;5054707;28;20786;-76
2022/06/21 05:48:24;;;;;;;9.00;7.13;;;;;;;;;;5054375;28;20432;-76
2022/06/21 05:50:51;;;;;;;11.80;6.67;;;;;;;;;;5054674;28;20413;-75
2022/06/21 05:53:20;;;;;;;11.80;7.00;;;;;;;;;;5054446;28;20454;-78
2022/06/21 05:55:48;;;;;;;10.33;7.60;;;;;;;;;;5054433;28;20432;-75
2022/06/21 05:58:17;;;;;;;8.10;6.73;;;;;;;;;;5054529;28;20409;-76
2022/06/21 06:00:57;;;;;;;9.23;7.03;;;;;;;;;;5051487;28;20917;-75
2022/06/21 06:03:30;;;;;;;9.23;6.37;;;;;;;;;;5034082;28;20472;-76
2022/06/21 06:05:57;;;;;;;6.53;5.47;;;;;;;;;;5032708;28;20452;-77
2022/06/21 06:08:28;;;;;;;8.80;6.50;;;;;;;;;;5033997;28;20416;-75
2022/06/21 06:10:55;;;;;;;6.73;5.80;;;;;;;;;;5034139;28;20432;-77
2022/06/21 06:13:25;;;;;;;7.23;6.07;;;;;;;;;;5033869;28;20420;-77
2022/06/21 06:15:53;;;;;;;7.87;6.70;;;;;;;;;;5034428;28;20527;-76
2022/06/21 06:18:23;;;;;;;6.60;5.90;;;;;;;;;;5034037;28;20461;-76
2022/06/21 06:21:19;;;;;;;8.97;6.70;;;;;;;;;;5032566;28;20474;-75
2022/06/21 06:23:50;;;;;;;7.00;6.30;;;;;;;;;;5033107;28;20414;-74
2022/06/21 06:26:23;;;;;;;11.17;6.23;;;;;;;;;;5033952;28;20921;-75
2022/06/21 06:28:58;;;;;;;6.53;5.60;;;;;;;;;;5033803;28;20406;-76
2022/06/21 06:31:27;;;;;;;6.93;5.10;;;;;;;;;;5033728;28;20878;-75
2022/06/21 06:33:56;;;;;;;9.13;5.97;;;;;;;;;;5033416;28;20414;-76
2022/06/21 06:36:27;;;;;;;9.40;5.33;;;;;;;;;;5033664;28;20404;-75
2022/06/21 06:38:54;;;;;;;9.60;6.00;;;;;;;;;;5033577;28;20499;-76
2022/06/21 06:41:26;;;;;;;9.07;6.47;;;;;;;;;;5033508;28;20471;-76
2022/06/21 06:43:57;;;;;;;6.87;6.17;;;;;;;;;;5033521;28;20413;-76
2022/06/21 06:46:43;;;;;;;8.47;6.50;;;;;;;;;;5033668;28;20408;-76
2022/06/21 06:49:21;;;;;;;9.27;6.13;;;;;;;;;;5041057;28;20505;-76
2022/06/21 06:51:55;;;;;;;8.70;5.87;;;;;;;;;;5043143;28;20755;-75
2022/06/21 06:54:29;;;;;;;8.33;6.03;;;;;;;;;;5042346;28;20396;-75
2022/06/21 06:57:08;;;;;;;12.40;6.00;;;;;;;;;;5041811;28;20404;-76
2022/06/21 06:59:35;;;;;;;14.73;5.73;;;;;;;;;;5041766;28;20413;-75
2022/06/21 07:02:12;;;;;;;8.47;5.73;;;;;;;;;;5034247;28;20493;-76
2022/06/21 07:04:40;;;;;;;13.57;6.00;;;;;;;;;;5033238;28;20895;-77
2022/06/21 07:07:09;;;;;;;9.10;5.97;;;;;;;;;;5033136;28;20387;-77
2022/06/21 07:09:49;;;;;;;9.63;5.97;;;;;;;;;;5032081;28;20774;-77
2022/06/21 07:12:17;;;;;;;9.90;5.87;;;;;;;;;;5033326;28;20421;-77
2022/06/21 07:14:44;;;;;;;10.83;6.80;;;;;;;;;;5032873;28;20470;-76
2022/06/21 07:17:31;;;;;;;10.93;6.10;;;;;;;;;;5033121;28;20384;-75
2022/06/21 07:19:57;;;;;;;8.33;5.10;;;;;;;;;;5032549;28;20507;-74
2022/06/21 07:22:25;;;;;;;9.73;5.53;;;;;;;;;;5033050;28;20469;-75
2022/06/21 07:25:02;;;;;;;6.43;4.93;;;;;;;;;;5033025;28;20408;-75
2022/06/21 07:27:29;;;;;;;10.70;5.63;;;;;;;;;;5032920;28;20902;-75
2022/06/21 07:30:16;;;;;;;5.00;4.20;;;;;;;;;;5033074;28;20381;-75
2022/06/21 07:32:47;;;;;;;8.10;4.67;;;;;;;;;;5032893;28;20408;-75
2022/06/21 07:35:18;;;;;;;9.30;4.73;;;;;;;;;;5032895;28;20408;-74
2022/06/21 07:37:52;;;;;;;8.37;5.07;;;;;;;;;;5033132;28;20778;-75
2022/06/21 07:40:23;;;;;;;6.20;4.40;;;;;;;;;;5031985;28;20424;-74
2022/06/21 07:42:57;;;;;;;8.47;5.57;;;;;;;;;;5032950;28;20443;-75
2022/06/21 07:45:26;;;;;;;8.47;4.90;;;;;;;;;;5032744;28;20424;-75
2022/06/21 07:48:04;;;;;;;8.27;4.03;;;;;;;;;;5032908;28;20445;-76
2022/06/21 07:50:30;;;;;;;5.43;4.40;;;;;;;;;;5032857;28;20360;-76
2022/06/21 07:53:00;;;;;;;10.13;5.37;;;;;;;;;;5032483;28;20438;-77
2022/06/21 07:55:38;;;;;;;8.47;4.87;;;;;;;;;;5032977;28;20423;-78
2022/06/21 07:58:13;;;;;;;9.23;4.03;;;;;;;;;;5032885;28;20963;-75
2022/06/21 08:09:13;;;;;;;8.10;3.87;;;;;;;;;;5033048;28;20371;-75
2022/06/21 08:11:40;;;;;;;14.90;5.10;;;;;;;;;;5032640;28;20382;-75
2022/06/21 08:14:07;;;;;;;5.40;3.90;;;;;;;;;;5032267;28;20585;-76
2022/06/21 08:16:43;;;;;;;8.40;4.50;;;;;;;;;;5031323;28;20456;-76
2022/06/21 08:19:14;;;;;;;9.50;3.60;;;;;;;;;;5032672;28;20476;-76
2022/06/21 08:21:58;;;;;;;6.00;3.20;;;;;;;;;;5032415;28;20501;-76
2022/06/21 08:24:29;;;;;;;10.80;3.40;;;;;;;;;;5032109;28;20460;-76
2022/06/21 08:27:18;;;;;;;6.53;3.00;;;;;;;;;;5032623;28;20505;-75
2022/06/21 08:29:51;;;;;;;5.80;3.37;;;;;;;;;;5033314;28;20421;-76
2022/06/21 08:32:22;;;;;;;3.97;3.33;;;;;;;;;;5035906;28;20766;-76
2022/06/21 08:34:50;;;;;;;6.87;3.13;;;;;;;;;;5035642;28;20464;-75
2022/06/21 08:37:35;;;;;;;5.50;2.20;;;;;;;;;;5035971;28;20452;-76
2022/06/21 08:40:20;;;;;;;3.07;2.43;;;;;;;;;;5036106;28;20414;-76
2022/06/21 08:42:52;;;;;;;8.10;2.80;;;;;;;;;;5035636;28;20546;-75
2022/06/21 08:45:42;;;;;;;6.77;2.60;;;;;;;;;;5036186;28;20981;-75
2022/06/21 08:48:26;;;;;;;4.43;2.37;;;;;;;;;;5036111;28;20413;-75
2022/06/21 08:50:58;;;;;;;7.17;3.10;;;;;;;;;;5035809;28;20410;-74
2022/06/21 08:53:39;;;;;;;4.70;2.30;;;;;;;;;;5035288;28;20398;-76
2022/06/21 08:56:26;;;;;;;7.37;2.50;;;;;;;;;;5034263;28;20471;-75
2022/06/21 08:58:57;;;;;;;3.60;2.30;;;;;;;;;;5035502;28;20960;-75
2022/06/21 09:01:29;;;;;;;6.47;2.20;;;;;;;;;;5035573;28;20493;-75
2022/06/21 09:04:07;;;;;;;7.33;2.80;;;;;;;;;;5035145;28;20406;-75
2022/06/21 09:06:33;;;;;;;2.97;2.33;;;;;;;;;;5035321;28;20453;-75
2022/06/21 09:09:08;;;;;;;4.10;2.30;;;;;;;;;;5035343;28;20455;-77
2022/06/21 09:11:50;;;;;;;3.13;2.53;;;;;;;;;;5035301;28;20446;-75
2022/06/21 09:14:19;;;;;;;4.53;2.20;;;;;;;;;;5034911;28;20407;-75
2022/06/21 09:16:50;;;;;;;2.40;1.87;;;;;;;;;;5035228;28;20406;-76
2022/06/21 09:19:26;;;;;;;6.03;2.07;;;;;;;;;;5035345;28;20503;-75
2022/06/21 09:22:04;;;;;;;3.00;2.00;;;;;;;;;;5035063;28;20512;-76
2022/06/21 09:24:30;;;;;;;4.60;2.00;;;;;;;;;;5033461;28;20424;-75
2022/06/21 09:27:02;;;;;;;3.43;1.97;;;;;;;;;;5035073;28;20812;-75
2022/06/21 09:29:31;;;;;;;3.77;2.10;;;;;;;;;;5035122;28;20415;-75
2022/06/21 09:32:00;;;;;;;6.17;2.10;;;;;;;;;;5034744;28;20457;-75
2022/06/21 09:34:29;;;;;;;2.47;1.70;;;;;;;;;;5034273;28;20492;-75
2022/06/21 09:37:05;;;;;;;3.10;1.90;;;;;;;;;;5035005;28;20492;-76
2022/06/21 09:39:34;;;;;;;4.33;2.07;;;;;;;;;;5034932;28;20504;-75
2022/06/21 09:42:12;;;;;;;5.40;2.30;;;;;;;;;;5032381;28;20464;-75
2022/06/21 09:44:44;;;;;;;2.43;2.07;;;;;;;;;;5034106;28;20426;-75
2022/06/21 09:47:22;;;;;;;4.00;2.77;;;;;;;;;;5034643;28;20415;-76
2022/06/21 09:50:00;;;;;;;3.90;2.73;;;;;;;;;;5034683;28;20965;-76
2022/06/21 09:52:38;;;;;;;3.00;2.20;;;;;;;;;;5034510;28;20443;-75
2022/06/21 09:55:23;;;;;;;4.50;2.40;;;;;;;;;;5033967;28;20433;-76
2022/06/21 09:57:52;;;;;;;4.13;2.30;;;;;;;;;;5033117;28;20503;-76
2022/06/21 10:00:48;;;;;;;4.93;2.33;;;;;;;;;;5034665;28;20411;-77
2022/06/21 10:03:32;;;;;;;2.13;1.63;;;;;;;;;;5033604;28;20488;-76
2022/06/21 10:06:19;;;;;;;3.27;1.90;;;;;;;;;;5033079;28;20786;-76
2022/06/21 10:09:04;;;;;;;3.53;2.10;;;;;;;;;;5034298;28;20906;-76
2022/06/21 10:11:29;;;;;;;5.10;2.13;;;;;;;;;;5034249;28;20409;-76
2022/06/21 10:14:00;;;;;;;6.17;2.20;;;;;;;;;;5033686;28;20432;-75
2022/06/21 10:16:31;;;;;;;11.03;2.07;;;;;;;;;;5033895;28;20441;-76
2022/06/21 10:19:12;;;;;;;5.30;2.40;;;;;;;;;;5033927;28;20445;-77
2022/06/21 10:21:41;;;;;;;3.13;2.13;;;;;;;;;;5033836;28;20819;-76
2022/06/21 10:24:10;;;;;;;3.23;2.50;;;;;;;;;;5033682;28;20413;-77
2022/06/21 10:26:54;;;;;;;6.57;1.83;;;;;;;;;;5033558;28;20422;-75
2022/06/21 10:29:26;;;;;;;5.33;2.37;;;;;;;;;;5033880;28;20455;-76
2022/06/21 10:32:07;;;;;;;3.80;1.90;;;;;;;;;;5033859;28;20429;-76
2022/06/21 10:34:42;;;;;;;7.47;1.93;;;;;;;;;;5033343;28;20856;-77
2022/06/21 10:37:15;;;;;;;6.20;2.47;;;;;;;;;;5033663;28;20418;-76
2022/06/21 10:39:47;;;;;;;3.60;2.03;;;;;;;;;;5033842;28;20429;-76
2022/06/21 10:45:24;;;;;;;4.47;1.93;;;;;;;;;;5033216;28;20879;-76
2022/06/21 10:47:56;;;;;;;3.93;1.60;;;;;;;;;;5032276;28;20408;-77
2022/06/21 10:50:35;;;;;;;3.77;1.60;;;;;;;;;;5033813;28;20512;-77
2022/06/21 10:53:20;;;;;;;2.10;1.60;;;;;;;;;;5033002;28;20413;-77
2022/06/21 10:55:49;;;;;;;2.40;1.70;;;;;;;;;;5032327;28;20475;-77
2022/06/21 10:58:27;;;;;;;2.30;1.80;;;;;;;;;;5033723;28;20416;-76
2022/06/21 11:01:18;;;;;;;4.63;2.07;;;;;;;;;;5033419;28;20419;-76
2022/06/21 11:03:49;;;;;;;2.73;1.70;;;;;;;;;;5033256;28;20511;-76
2022/06/21 11:06:20;;;;;;;2.50;1.63;;;;;;;;;;5032054;28;20463;-75
2022/06/21 11:08:49;;;;;;;2.43;2.10;;;;;;;;;;5033519;28;20434;-77
2022/06/21 11:11:22;;;;;;;2.37;1.50;;;;;;;;;;5033344;28;20433;-77
2022/06/21 11:13:57;;;;;;;3.97;2.17;;;;;;;;;;5032983;28;20404;-77
2022/06/21 11:16:26;;;;;;;4.80;1.90;;;;;;;;;;5032005;28;20433;-76
2022/06/21 11:18:52;;;;;;;3.50;1.70;;;;;;;;;;5031870;28;20753;-77
2022/06/21 11:21:27;;;;;;;3.93;2.20;;;;;;;;;;5033000;28;20455;-76
2022/06/21 11:23:59;;;;;;;3.70;2.40;;;;;;;;;;5032822;28;20894;-77
2022/06/21 11:26:39;;;;;;;5.63;2.57;;;;;;;;;;5033014;28;20433;-76
2022/06/21 11:29:14;;;;;;;4.03;2.37;;;;;;;;;;5032995;28;20524;-76
2022/06/21 11:31:45;;;;;;;3.60;1.70;;;;;;;;;;5033224;28;20933;-76
2022/06/21 11:34:30;;;;;;;2.73;1.57;;;;;;;;;;5032750;28;20491;-76
2022/06/21 11:37:16;;;;;;;2.47;2.10;;;;;;;;;;5031619;28;20421;-76
2022/06/21 11:39:45;;;;;;;3.70;2.00;;;;;;;;;;5033103;28;20442;-75
2022/06/21 11:42:31;;;;;;;4.17;1.87;;;;;;;;;;5033308;28;20469;-77
2022/06/21 11:45:06;;;;;;;2.70;1.60;;;;;;;;;;5031322;28;20780;-78
2022/06/21 11:47:45;;;;;;;4.00;1.90;;;;;;;;;;5033103;28;20405;-77
2022/06/21 11:50:11;;;;;;;3.43;2.50;;;;;;;;;;5031509;28;20497;-78
2022/06/21 11:52:52;;;;;;;3.00;1.80;;;;;;;;;;5032846;28;20422;-77
2022/06/21 11:55:21;;;;;;;6.03;2.50;;;;;;;;;;5032766;28;20576;-75
2022/06/21 11:57:59;;;;;;;2.43;1.77;;;;;;;;;;5031591;28;20424;-76
2022/06/21 12:00:31;;;;;;;4.40;2.27;;;;;;;;;;5032910;28;20424;-76
2022/06/21 12:03:02;;;;;;;5.77;1.83;;;;;;;;;;5032367;28;20461;-76
2022/06/21 12:05:31;;;;;;;2.20;1.50;;;;;;;;;;5035134;28;20923;-74
2022/06/21 12:08:11;;;;;;;4.13;1.57;;;;;;;;;;5036827;28;20555;-77
2022/06/21 12:10:37;;;;;;;5.50;1.87;;;;;;;;;;5036725;28;20520;-75
2022/06/21 12:13:32;;;;;;;2.60;1.80;;;;;;;;;;5036187;28;20463;-76
2022/06/21 12:16:16;;;;;;;2.93;1.70;;;;;;;;;;5035761;28;20445;-75
2022/06/21 12:18:45;;;;;;;2.67;1.43;;;;;;;;;;5036508;28;20406;-76
2022/06/21 12:21:13;;;;;;;2.27;1.60;;;;;;;;;;5036163;28;20414;-77
2022/06/21 12:23:44;;;;;;;3.00;2.00;;;;;;;;;;5035866;28;20406;-75
2022/06/21 12:26:18;;;;;;;8.03;1.80;;;;;;;;;;5036160;28;20433;-75
2022/06/21 12:28:45;;;;;;;2.53;1.60;;;;;;;;;;5036218;28;20805;-76
2022/06/21 12:31:21;;;;;;;2.60;1.20;;;;;;;;;;5036138;28;20902;-76
2022/06/21 12:33:49;;;;;;;2.60;1.53;;;;;;;;;;5035418;28;20413;-76
2022/06/21 12:36:22;;;;;;;1.87;1.70;;;;;;;;;;5036003;28;20432;-77
2022/06/21 12:38:54;;;;;;;3.10;1.40;;;;;;;;;;5036211;28;20405;-76
2022/06/21 12:41:32;;;;;;;1.47;1.27;;;;;;;;;;5034703;28;20966;-76
2022/06/21 12:43:58;;;;;;;2.77;2.00;;;;;;;;;;5035575;28;20413;-75
2022/06/21 12:46:30;;;;;;;3.50;1.63;;;;;;;;;;5035781;28;20426;-77
2022/06/21 12:49:02;;;;;;;2.87;1.57;;;;;;;;;;5035845;28;20493;-75
2022/06/21 12:51:48;;;;;;;5.60;1.40;;;;;;;;;;5035645;28;20913;-75
2022/06/21 12:54:26;;;;;;;1.93;1.40;;;;;;;;;;5034811;28;20527;-77
2022/06/21 12:57:04;;;;;;;2.80;1.73;;;;;;;;;;5035772;28;20413;-75
2022/06/21 12:59:29;;;;;;;2.57;1.70;;;;;;;;;;5035764;28;20416;-76
2022/06/21 13:02:12;;;;;;;3.10;1.60;;;;;;;;;;5035525;28;20457;-76
2022/06/21 13:04:52;;;;;;;14.37;2.90;;;;;;;;;;5033912;28;20507;-75
2022/06/21 13:07:18;;;;;;;2.40;1.80;;;;;;;;;;5035651;28;20405;-76
2022/06/21 13:10:02;;;;;;;5.73;2.17;;;;;;;;;;5033997;28;20937;-75
2022/06/21 13:12:44;;;;;;;2.60;1.60;;;;;;;;;;5035682;28;20447;-76
2022/06/21 13:15:19;;;;;;;2.00;1.70;;;;;;;;;;5035079;28;20431;-76
2022/06/21 13:17:54;;;;;;;6.87;1.57;;;;;;;;;;5035229;28;20410;-74
2022/06/21 13:20:30;;;;;;;3.20;2.10;;;;;;;;;;5035090;28;20506;-75
2022/06/21 13:23:02;;;;;;;5.27;2.17;;;;;;;;;;5034911;28;21034;-76
2022/06/21 13:25:43;;;;;;;8.33;2.07;;;;;;;;;;5035104;28;20936;-76
2022/06/21 13:28:20;;;;;;;2.30;1.90;;;;;;;;;;5034936;28;20975;-76
2022/06/21 13:30:46;;;;;;;5.03;1.80;;;;;;;;;;5035237;28;20409;-75
2022/06/21 13:33:21;;;;;;;3.30;1.80;;;;;;;;;;5034400;28;20901;-77
2022/06/21 13:36:02;;;;;;;2.53;2.03;;;;;;;;;;5034904;28;20441;-75
2022/06/21 13:38:41;;;;;;;1.60;1.50;;;;;;;;;;5034879;28;20409;-74
2022/06/21 13:44:13;;;;;;;5.70;1.80;;;;;;;;;;5051696;28;20400;-74
2022/06/21 13:46:41;;;;;;;2.80;1.70;;;;;;;;;;5054750;28;20406;-74
2022/06/21 13:49:14;;;;;;;7.90;1.80;;;;;;;;;;5054947;28;20407;-74
2022/06/21 13:51:46;;;;;;;4.83;1.80;;;;;;;;;;5054731;28;20765;-75
2022/06/21 13:54:21;;;;;;;1.87;1.60;;;;;;;;;;5054137;28;20438;-75
2022/06/21 13:56:47;;;;;;;2.50;1.80;;;;;;;;;;5054513;28;20425;-76
2022/06/21 13:59:37;;;;;;;3.57;1.90;;;;;;;;;;5054331;28;20403;-76
2022/06/21 14:02:08;;;;;;;4.30;2.13;;;;;;;;;;5051297;28;20917;-75
2022/06/21 14:04:46;;;;;;;2.73;1.40;;;;;;;;;;5053793;28;20467;-76
2022/06/21 14:07:18;;;;;;;2.90;1.60;;;;;;;;;;5054195;28;20797;-75
2022/06/21 14:09:49;;;;;;;2.93;1.63;;;;;;;;;;5054291;28;20440;-76
2022/06/21 14:12:21;;;;;;;2.30;1.73;;;;;;;;;;5054302;28;20413;-75
2022/06/21 14:14:56;;;;;;;2.50;1.77;;;;;;;;;;5053914;28;20436;-75
2022/06/21 14:17:41;;;;;;;2.30;1.87;;;;;;;;;;5054181;28;20408;-74
2022/06/21 14:20:23;;;;;;;3.10;1.40;;;;;;;;;;5053955;28;20492;-76
2022/06/21 14:22:52;;;;;;;3.73;1.80;;;;;;;;;;5053995;28;20498;-75
2022/06/21 14:25:30;;;;;;;3.13;1.80;;;;;;;;;;5053843;28;20481;-74
2022/06/21 14:28:00;;;;;;;2.07;1.70;;;;;;;;;;5053420;28;20412;-74
2022/06/21 14:30:33;;;;;;;2.53;1.80;;;;;;;;;;5053784;28;20860;-74
2022/06/21 14:33:02;;;;;;;4.73;1.73;;;;;;;;;;5052033;28;20829;-74
2022/06/21 14:35:36;;;;;;;3.50;1.60;;;;;;;;;;5053567;28;20431;-75
2022/06/21 14:38:02;;;;;;;3.37;1.70;;;;;;;;;;5053642;28;20506;-75
2022/06/21 14:40:38;;;;;;;2.43;1.40;;;;;;;;;;5052509;28;20516;-75
2022/06/21 14:43:27;;;;;;;2.60;1.70;;;;;;;;;;5053017;28;20467;-75
2022/06/21 14:45:53;;;;;;;3.67;1.70;;;;;;;;;;5050354;28;20470;-75
2022/06/21 14:48:27;;;;;;;3.50;1.80;;;;;;;;;;5053730;28;20482;-76
2022/06/21 14:50:58;;;;;;;4.83;2.13;;;;;;;;;;5053330;28;20499;-76
2022/06/21 14:53:41;;;;;;;1.77;1.60;;;;;;;;;;5053019;28;20417;-76
2022/06/21 14:56:06;;;;;;;3.10;1.90;;;;;;;;;;5053301;28;20432;-75
2022/06/21 14:58:35;;;;;;;2.83;1.77;;;;;;;;;;5053233;28;20416;-76
2022/06/21 15:01:17;;;;;;;3.30;1.53;;;;;;;;;;5053739;28;21290;-75
2022/06/21 15:03:43;;;;;;;2.43;1.70;;;;;;;;;;5052970;28;20488;-75
2022/06/21 15:06:24;;;;;;;3.87;1.83;;;;;;;;;;5053209;28;20420;-76
2022/06/21 15:09:00;;;;;;;2.50;1.57;;;;;;;;;;5052997;28;20409;-75
2022/06/21 15:11:52;;;;;;;2.50;1.93;;;;;;;;;;5053165;28;20525;-75
2022/06/21 15:14:14;;;;;;;3.53;1.83;;;;;;;;;;5052679;28;20772;-76
2022/06/21 15:17:10;;;;;;;7.07;1.83;;;;;;;;;;5053166;28;20412;-76
2022/06/21 15:19:54;;;;;;;3.80;1.60;;;;;;;;;;5048516;28;20432;-75
2022/06/21 15:22:33;;;;;;;5.07;1.70;;;;;;;;;;5052864;28;20949;-75
2022/06/21 15:25:04;;;;;;;2.60;1.57;;;;;;;;;;5052563;28;20494;-76
2022/06/21 15:27:32;;;;;;;2.60;1.50;;;;;;;;;;5053070;28;20407;-74
2022/06/21 15:29:59;;;;;;;3.23;2.00;;;;;;;;;;5053009;28;20815;-77
2022/06/21 15:32:28;;;;;;;3.33;1.63;;;;;;;;;;5052795;28;20490;-76